Time;durP1;ratioP1;P1;durP2;ratioP2;P2;SDS_P1;SDS_P2;PMS_P1;PMS_P2;Temp;Humidity;BMP_temperature;BMP_pressure;BME280_temperature;BME280_humidity;BME280_pressure;Samples;Min_cycle;Max_cycle;Signal;HPM_P1;HPM_P2
2021/08/18 00:02:25;;;;;;;;;;;15.10;99.90;;;;;;5010734;28;19909;-65
2021/08/18 00:04:52;;;;;;;;;;;15.10;99.90;;;;;;5010632;28;19919;-65
2021/08/18 00:07:18;;;;;;;;;;;15.10;99.90;;;;;;5012612;28;19910;-65
2021/08/18 00:09:43;;;;;;;;;;;15.10;99.90;;;;;;5014094;28;19916;-64
2021/08/18 00:12:09;;;;;;;;;;;15.10;99.90;;;;;;5014548;28;20349;-65
2021/08/18 00:14:34;;;;;;;;;;;15.10;99.90;;;;;;5013802;28;20334;-65
2021/08/18 00:17:00;;;;;;;;;;;15.00;1.00;;;;;;5014527;28;19914;-65
2021/08/18 00:19:26;;;;;;;;;;;15.00;1.00;;;;;;5013662;28;19909;-65
2021/08/18 00:21:51;;;;;;;;;;;15.00;1.00;;;;;;5014075;28;19913;-65
2021/08/18 00:24:17;;;;;;;;;;;14.90;1.00;;;;;;5013868;28;19917;-65
2021/08/18 00:26:42;;;;;;;;;;;14.90;1.00;;;;;;5014423;28;20282;-65
2021/08/18 00:29:08;;;;;;;;;;;14.80;1.00;;;;;;5013257;28;20390;-65
2021/08/18 00:31:33;;;;;;;;;;;14.80;1.00;;;;;;5014199;28;19963;-65
2021/08/18 00:33:59;;;;;;;;;;;14.80;1.00;;;;;;5013963;28;19924;-65
2021/08/18 00:36:25;;;;;;;;;;;14.70;1.00;;;;;;5013524;28;19917;-65
2021/08/18 00:38:50;;;;;;;;;;;14.70;1.00;;;;;;5013211;28;19948;-64
2021/08/18 00:41:16;;;;;;;;;;;14.70;1.00;;;;;;5014091;28;20378;-65
2021/08/18 00:43:41;;;;;;;;;;;14.60;1.00;;;;;;5013535;28;19923;-65
2021/08/18 00:46:07;;;;;;;;;;;14.60;1.00;;;;;;5013925;28;19910;-64
2021/08/18 00:48:33;;;;;;;;;;;14.50;1.00;;;;;;5012821;28;19914;-64
2021/08/18 00:50:59;;;;;;;;;;;14.50;1.00;;;;;;5013781;28;20390;-65
2021/08/18 00:53:24;;;;;;;;;;;14.50;1.00;;;;;;5013457;28;20015;-65
2021/08/18 00:55:50;;;;;;;;;;;14.40;1.00;;;;;;5013620;28;20547;-65
2021/08/18 00:58:15;;;;;;;;;;;14.50;1.00;;;;;;5013450;28;19956;-66
2021/08/18 01:00:41;;;;;;;;;;;14.50;1.00;;;;;;5012771;28;19953;-66
2021/08/18 01:03:07;;;;;;;;;;;14.50;1.00;;;;;;5013425;28;19958;-65
2021/08/18 01:05:32;;;;;;;;;;;14.50;1.00;;;;;;5013251;28;19972;-66
2021/08/18 01:07:59;;;;;;;;;;;14.50;1.00;;;;;;5012792;28;20309;-66
2021/08/18 01:10:25;;;;;;;;;;;14.50;1.00;;;;;;5013405;28;20020;-65
2021/08/18 01:12:52;;;;;;;;;;;14.60;1.00;;;;;;5013275;28;20012;-65
2021/08/18 01:15:19;;;;;;;;;;;14.60;1.00;;;;;;5013112;28;19910;-66
2021/08/18 01:17:47;;;;;;;;;;;14.60;1.00;;;;;;5012695;28;19913;-66
2021/08/18 01:20:15;;;;;;;;;;;14.60;1.00;;;;;;5017823;28;19927;-66
2021/08/18 01:22:41;;;;;;;;;;;14.60;1.00;;;;;;5020551;28;19932;-66
2021/08/18 01:25:07;;;;;;;;;;;14.60;1.00;;;;;;5021594;28;20012;-66
2021/08/18 01:27:34;;;;;;;;;;;14.70;1.00;;;;;;5023260;28;19921;-66
2021/08/18 01:29:59;;;;;;;;;;;14.60;1.00;;;;;;5025530;28;20148;-66
2021/08/18 01:32:25;;;;;;;;;;;14.60;1.00;;;;;;5024172;28;20403;-66
2021/08/18 01:34:50;;;;;;;;;;;14.60;1.00;;;;;;5024491;28;19973;-66
2021/08/18 01:37:16;;;;;;;;;;;14.60;1.00;;;;;;5024751;28;19921;-66
2021/08/18 01:39:41;;;;;;;;;;;14.60;1.00;;;;;;5025026;28;20419;-66
2021/08/18 01:42:07;;;;;;;;;;;14.60;1.00;;;;;;5013538;28;19952;-66
2021/08/18 01:44:32;;;;;;;;;;;14.60;1.00;;;;;;5012255;28;20371;-66
2021/08/18 01:46:59;;;;;;;;;;;14.60;1.00;;;;;;5012578;28;19963;-65
2021/08/18 01:49:25;;;;;;;;;;;14.60;1.00;;;;;;5011868;28;19910;-66
2021/08/18 01:51:50;;;;;;;;;;;14.60;1.00;;;;;;5012582;28;20000;-66
2021/08/18 01:54:16;;;;;;;;;;;14.60;1.00;;;;;;5012468;28;20008;-66
2021/08/18 01:56:41;;;;;;;;;;;14.60;1.00;;;;;;5012343;28;19996;-66
2021/08/18 01:59:07;;;;;;;;;;;14.50;1.00;;;;;;5011343;28;19921;-66
2021/08/18 02:01:32;;;;;;;;;;;14.50;1.00;;;;;;5012430;28;19909;-65
2021/08/18 02:03:58;;;;;;;;;;;14.50;1.00;;;;;;5011811;28;19996;-66
2021/08/18 02:06:24;;;;;;;;;;;14.50;1.00;;;;;;5012240;28;19910;-66
2021/08/18 02:08:49;;;;;;;;;;;14.60;1.00;;;;;;5011350;28;19968;-66
2021/08/18 02:11:15;;;;;;;;;;;14.70;1.00;;;;;;5012127;28;20312;-65
2021/08/18 02:13:41;;;;;;;;;;;14.70;1.00;;;;;;5011497;28;19909;-65
2021/08/18 02:16:07;;;;;;;;;;;14.70;1.00;;;;;;5012024;28;20371;-66
2021/08/18 02:18:33;;;;;;;;;;;14.70;1.00;;;;;;5011205;28;19949;-65
2021/08/18 02:20:58;;;;;;;;;;;14.70;1.00;;;;;;5011590;28;19914;-66
2021/08/18 02:23:24;;;;;;;;;;;14.70;1.00;;;;;;5011721;28;19925;-66
2021/08/18 02:25:50;;;;;;;;;;;14.70;1.00;;;;;;5011905;28;19913;-66
2021/08/18 02:28:15;;;;;;;;;;;14.70;1.00;;;;;;5011230;28;19921;-66
2021/08/18 02:30:41;;;;;;;;;;;14.70;1.00;;;;;;5011133;28;20008;-66
2021/08/18 02:33:06;;;;;;;;;;;14.70;1.00;;;;;;5012219;28;19971;-66
2021/08/18 02:35:32;;;;;;;;;;;14.70;1.00;;;;;;5011653;28;19917;-66
2021/08/18 02:37:58;;;;;;;;;;;14.70;1.00;;;;;;5011402;28;19928;-66
2021/08/18 02:40:24;;;;;;;;;;;14.70;1.00;;;;;;5012129;28;19909;-66
2021/08/18 02:42:54;;;;;;;;;;;14.80;1.00;;;;;;5011858;28;19913;-65
2021/08/18 02:45:20;;;;;;;;;;;14.70;1.00;;;;;;5012007;28;19922;-66
2021/08/18 02:47:46;;;;;;;;;;;14.80;1.00;;;;;;5011223;28;19972;-65
2021/08/18 02:50:14;;;;;;;;;;;14.80;1.00;;;;;;5011852;28;19909;-66
2021/08/18 02:52:40;;;;;;;;;;;14.80;1.00;;;;;;5011860;28;19967;-66
2021/08/18 02:55:06;;;;;;;;;;;14.80;1.00;;;;;;5011225;28;19909;-65
2021/08/18 02:57:31;;;;;;;;;;;14.80;1.00;;;;;;5010572;28;19914;-66
2021/08/18 02:59:57;;;;;;;;;;;14.80;1.00;;;;;;5010962;28;19910;-66
2021/08/18 03:02:24;;;;;;;;;;;14.80;1.00;;;;;;5011854;28;19914;-65
2021/08/18 03:04:49;;;;;;;;;;;14.80;1.00;;;;;;5011220;28;19917;-64
2021/08/18 03:07:15;;;;;;;;;;;14.80;1.00;;;;;;5010861;28;20000;-63
2021/08/18 03:09:40;;;;;;;;;;;14.80;1.00;;;;;;5011001;28;20028;-65
2021/08/18 03:12:06;;;;;;;;;;;14.80;1.00;;;;;;5011502;28;20355;-64
2021/08/18 03:14:32;;;;;;;;;;;14.80;1.00;;;;;;5010614;28;20488;-65
2021/08/18 03:16:58;;;;;;;;;;;14.80;1.00;;;;;;5011090;28;19909;-65
2021/08/18 03:19:23;;;;;;;;;;;14.90;1.00;;;;;;5010182;28;19909;-65
2021/08/18 03:21:49;;;;;;;;;;;14.80;1.00;;;;;;5010906;28;20007;-65
2021/08/18 03:24:15;;;;;;;;;;;14.80;1.00;;;;;;5011003;28;19914;-65
2021/08/18 03:26:40;;;;;;;;;;;14.80;1.00;;;;;;5011131;28;19910;-64
2021/08/18 03:29:06;;;;;;;;;;;14.80;1.00;;;;;;5010544;28;19916;-65
2021/08/18 03:31:31;;;;;;;;;;;14.80;1.00;;;;;;5010632;28;20449;-64
2021/08/18 03:33:57;;;;;;;;;;;14.80;1.00;;;;;;5010865;28;19914;-65
2021/08/18 03:36:23;;;;;;;;;;;14.80;1.00;;;;;;5010737;28;19944;-65
2021/08/18 03:38:48;;;;;;;;;;;14.80;1.00;;;;;;5010202;28;19952;-64
2021/08/18 03:41:14;;;;;;;;;;;14.80;1.00;;;;;;5012055;28;19916;-64
2021/08/18 03:43:39;;;;;;;;;;;14.80;1.00;;;;;;5013961;28;19914;-65
2021/08/18 03:46:05;;;;;;;;;;;14.80;1.00;;;;;;5014785;28;20311;-64
2021/08/18 03:48:30;;;;;;;;;;;14.70;1.00;;;;;;5014067;28;19913;-64
2021/08/18 03:50:56;;;;;;;;;;;14.70;1.00;;;;;;5014630;28;19909;-64
2021/08/18 03:53:21;;;;;;;;;;;14.70;1.00;;;;;;5014854;28;19909;-64
2021/08/18 03:55:47;;;;;;;;;;;14.60;1.00;;;;;;5014252;28;19913;-64
2021/08/18 03:58:12;;;;;;;;;;;14.60;1.00;;;;;;5013994;28;19917;-64
2021/08/18 04:00:38;;;;;;;;;;;14.60;1.00;;;;;;5014003;28;19963;-64
2021/08/18 04:03:03;;;;;;;;;;;14.60;1.00;;;;;;5014597;28;20349;-65
2021/08/18 04:05:29;;;;;;;;;;;14.50;1.00;;;;;;5014477;28;19992;-64
2021/08/18 04:07:55;;;;;;;;;;;14.50;1.00;;;;;;5013626;28;19909;-65
2021/08/18 04:10:20;;;;;;;;;;;14.40;1.00;;;;;;5014326;28;19916;-64
2021/08/18 04:13:06;;;;;;;;;;;14.50;1.00;;;;;;5014477;28;19917;-65
2021/08/18 04:15:36;;;;;;;;;;;14.40;1.00;;;;;;5013407;28;19964;-64
2021/08/18 04:18:02;;;;;;;;;;;14.40;1.00;;;;;;5013774;28;19909;-64
2021/08/18 04:20:27;;;;;;;;;;;14.40;1.00;;;;;;5014512;28;19949;-64
2021/08/18 04:22:53;;;;;;;;;;;14.30;1.00;;;;;;5014222;28;20359;-64
2021/08/18 04:25:20;;;;;;;;;;;14.40;1.00;;;;;;5014819;28;19972;-64
2021/08/18 04:53:39;;;;;;;;;;;14.70;1.00;;;;;;5288951;23;19929;-65
2021/08/18 04:56:04;;;;;;;;;;;14.70;1.00;;;;;;5005905;28;19976;-65
2021/08/18 04:58:30;;;;;;;;;;;14.70;1.00;;;;;;5009286;28;19909;-66
2021/08/18 05:00:55;;;;;;;;;;;14.70;1.00;;;;;;5012023;28;20035;-66
2021/08/18 05:03:21;;;;;;;;;;;14.70;1.00;;;;;;5011414;28;19913;-67
2021/08/18 05:05:46;;;;;;;;;;;14.70;1.00;;;;;;5012991;28;19910;-67
2021/08/18 05:08:12;;;;;;;;;;;14.80;1.00;;;;;;5008763;28;20392;-67
2021/08/18 05:10:38;;;;;;;;;;;14.80;1.00;;;;;;5011783;28;19909;-66
2021/08/18 05:13:03;;;;;;;;;;;14.90;1.00;;;;;;5011375;28;19935;-68
2021/08/18 05:15:29;;;;;;;;;;;14.90;1.00;;;;;;4998878;28;19910;-69
2021/08/18 05:17:55;;;;;;;;;;;15.00;1.00;;;;;;5012165;28;20023;-68
2021/08/18 05:20:21;;;;;;;;;;;15.00;1.00;;;;;;5012117;28;19914;-68
2021/08/18 05:22:47;;;;;;;;;;;15.00;1.00;;;;;;5009986;28;20432;-67
2021/08/18 05:25:14;;;;;;;;;;;15.00;1.00;;;;;;5010474;28;19913;-68
2021/08/18 05:27:39;;;;;;;;;;;15.10;1.00;;;;;;5008760;28;19921;-66
2021/08/18 05:30:09;;;;;;;;;;;15.10;1.00;;;;;;5002552;28;19914;-67
2021/08/18 05:32:35;;;;;;;;;;;15.20;1.00;;;;;;5011197;28;19935;-67
2021/08/18 05:35:00;;;;;;;;;;;15.20;1.00;;;;;;5011614;28;20352;-65
2021/08/18 05:37:26;;;;;;;;;;;15.30;1.00;;;;;;5011706;28;20001;-66
2021/08/18 05:39:51;;;;;;;;;;;15.40;1.00;;;;;;5010989;28;20302;-66
2021/08/18 05:42:17;;;;;;;;;;;15.50;1.00;;;;;;5010981;28;19910;-66
2021/08/18 05:44:42;;;;;;;;;;;15.60;1.00;;;;;;5011113;28;20281;-66
2021/08/18 05:47:08;;;;;;;;;;;15.60;1.00;;;;;;5011552;28;19917;-65
2021/08/18 05:49:33;;;;;;;;;;;15.70;1.00;;;;;;5011537;28;19968;-66
2021/08/18 05:51:59;;;;;;;;;;;15.80;1.00;;;;;;4997762;28;19914;-65
2021/08/18 05:54:24;;;;;;;;;;;15.90;1.00;;;;;;4990352;28;20137;-65
2021/08/18 05:56:52;;;;;;;;;;;16.00;99.90;;;;;;4991526;28;19917;-67
2021/08/18 05:59:17;;;;;;;;;;;16.10;99.90;;;;;;4991437;28;19917;-66
2021/08/18 06:01:43;;;;;;;;;;;16.20;99.90;;;;;;5008859;28;19932;-65
2021/08/18 06:04:08;;;;;;;;;;;16.30;99.90;;;;;;5009233;28;19928;-66
2021/08/18 06:06:34;;;;;;;;;;;16.40;92.70;;;;;;5010885;28;19910;-66
2021/08/18 06:08:59;;;;;;;;;;;16.30;22.50;;;;;;5009287;28;19917;-67
2021/08/18 06:11:25;;;;;;;;;;;16.40;1.00;;;;;;5010843;28;20019;-67
2021/08/18 06:13:50;;;;;;;;;;;16.30;1.00;;;;;;5009514;28;20040;-67
2021/08/18 06:16:16;;;;;;;;;;;16.40;1.00;;;;;;5010459;28;19918;-67
2021/08/18 06:18:41;;;;;;;;;;;16.40;1.00;;;;;;5010418;28;20370;-67
2021/08/18 06:21:07;;;;;;;;;;;16.50;1.00;;;;;;5009990;28;20295;-66
2021/08/18 06:23:34;;;;;;;;;;;16.50;1.00;;;;;;5008607;28;19914;-66
2021/08/18 06:25:59;;;;;;;;;;;16.40;1.00;;;;;;5010410;28;19909;-66
2021/08/18 06:28:25;;;;;;;;;;;16.40;1.00;;;;;;5010793;28;20329;-66
2021/08/18 06:30:52;;;;;;;;;;;16.50;1.00;;;;;;5010352;28;19913;-65
2021/08/18 06:33:17;;;;;;;;;;;16.50;1.00;;;;;;5009196;28;19909;-65
2021/08/18 06:35:43;;;;;;;;;;;16.60;1.00;;;;;;5010589;28;20020;-66
2021/08/18 06:38:09;;;;;;;;;;;16.60;1.00;;;;;;5005946;28;19980;-67
2021/08/18 06:40:34;;;;;;;;;;;16.70;1.00;;;;;;5000862;28;19924;-66
2021/08/18 06:43:00;;;;;;;;;;;16.70;1.00;;;;;;5004502;28;20262;-66
2021/08/18 06:45:25;;;;;;;;;;;16.70;99.90;;;;;;5006337;28;19960;-66
2021/08/18 06:47:51;;;;;;;;;;;16.80;1.00;;;;;;5010509;28;19991;-66
2021/08/18 06:50:16;;;;;;;;;;;16.90;99.90;;;;;;5010282;28;19917;-66
2021/08/18 06:52:42;;;;;;;;;;;17.10;99.90;;;;;;5008305;28;20649;-66
2021/08/18 06:55:08;;;;;;;;;;;17.40;1.00;;;;;;5010064;28;19918;-67
2021/08/18 06:57:34;;;;;;;;;;;17.60;1.00;;;;;;5009664;28;19921;-67
2021/08/18 06:59:59;;;;;;;;;;;17.90;1.00;;;;;;5009212;28;19936;-67
2021/08/18 07:02:25;;;;;;;;;;;18.00;1.00;;;;;;5008172;28;19909;-66
2021/08/18 07:04:50;;;;;;;;;;;18.10;1.00;;;;;;5009969;28;19917;-67
2021/08/18 07:07:16;;;;;;;;;;;18.20;99.90;;;;;;5010496;28;19945;-67
2021/08/18 07:09:42;;;;;;;;;;;18.30;99.90;;;;;;5008967;28;20374;-66
2021/08/18 07:12:07;;;;;;;;;;;18.30;99.90;;;;;;5009335;28;19920;-67
2021/08/18 07:14:33;;;;;;;;;;;18.30;1.00;;;;;;5009475;28;19921;-66
2021/08/18 07:16:58;;;;;;;;;;;18.30;1.00;;;;;;5010161;28;19909;-67
2021/08/18 07:19:24;;;;;;;;;;;18.40;1.00;;;;;;5010040;28;20381;-67
2021/08/18 07:21:49;;;;;;;;;;;18.40;1.00;;;;;;5009237;28;19909;-66
2021/08/18 07:24:15;;;;;;;;;;;18.50;1.00;;;;;;5008353;28;20641;-66
2021/08/18 07:26:40;;;;;;;;;;;18.70;1.00;;;;;;5010300;28;19959;-67
2021/08/18 07:29:06;;;;;;;;;;;18.80;1.00;;;;;;5009439;28;19909;-67
2021/08/18 07:31:31;;;;;;;;;;;19.10;1.00;;;;;;5009020;28;19964;-66
2021/08/18 07:33:57;;;;;;;;;;;19.20;99.90;;;;;;5008970;28;19909;-67
2021/08/18 07:36:22;;;;;;;;;;;19.20;99.90;;;;;;5009845;28;19932;-67
2021/08/18 07:38:48;;;;;;;;;;;19.30;99.90;;;;;;5009019;28;19959;-68
2021/08/18 07:41:13;;;;;;;;;;;19.50;99.90;;;;;;5009842;28;19943;-67
2021/08/18 07:43:39;;;;;;;;;;;19.70;3.40;;;;;;5007885;28;19964;-66
2021/08/18 07:46:04;;;;;;;;;;;19.90;1.00;;;;;;5009822;28;19921;-67
2021/08/18 07:48:31;;;;;;;;;;;20.00;1.00;;;;;;5009698;28;19952;-68
2021/08/18 07:50:57;;;;;;;;;;;20.10;1.00;;;;;;5010123;28;19996;-67
2021/08/18 07:53:22;;;;;;;;;;;20.20;1.00;;;;;;5008296;28;19913;-66
2021/08/18 07:55:48;;;;;;;;;;;19.90;1.00;;;;;;5009016;28;19955;-68
2021/08/18 07:58:13;;;;;;;;;;;19.60;1.00;;;;;;5009757;28;19913;-66
2021/08/18 08:00:39;;;;;;;;;;;19.30;1.00;;;;;;5009691;28;19909;-66
2021/08/18 08:03:07;;;;;;;;;;;19.10;1.00;;;;;;5009111;28;20302;-66
2021/08/18 08:05:33;;;;;;;;;;;19.10;1.00;;;;;;5009898;28;19909;-65
2021/08/18 08:07:59;;;;;;;;;;;19.00;1.00;;;;;;5008905;28;19920;-66
2021/08/18 08:10:24;;;;;;;;;;;19.10;1.00;;;;;;5009520;28;19925;-67
2021/08/18 08:12:50;;;;;;;;;;;19.30;1.00;;;;;;5008586;28;19944;-65
2021/08/18 08:15:15;;;;;;;;;;;19.40;1.00;;;;;;5009831;28;19996;-65
2021/08/18 08:17:41;;;;;;;;;;;19.40;1.00;;;;;;5009583;28;20366;-67
2021/08/18 08:20:06;;;;;;;;;;;19.50;1.00;;;;;;5009024;28;19959;-66
2021/08/18 08:22:32;;;;;;;;;;;19.60;1.00;;;;;;5008463;28;19913;-66
2021/08/18 08:24:58;;;;;;;;;;;19.60;1.00;;;;;;5009172;28;19914;-66
2021/08/18 08:27:23;;;;;;;;;;;19.60;1.00;;;;;;5005894;28;19918;-66
2021/08/18 08:29:49;;;;;;;;;;;19.70;1.00;;;;;;4993196;28;19921;-66
2021/08/18 08:32:14;;;;;;;;;;;19.80;1.00;;;;;;4992544;28;19933;-66
2021/08/18 08:34:40;;;;;;;;;;;19.70;1.00;;;;;;4993260;28;19914;-66
2021/08/18 08:37:05;;;;;;;;;;;19.80;1.00;;;;;;4993330;28;19949;-66
2021/08/18 08:39:31;;;;;;;;;;;19.80;1.00;;;;;;4991980;28;19910;-66
2021/08/18 08:41:56;;;;;;;;;;;19.90;1.00;;;;;;4992085;28;20258;-66
2021/08/18 08:44:23;;;;;;;;;;;19.70;1.00;;;;;;4992776;28;20338;-66
2021/08/18 08:46:49;;;;;;;;;;;19.50;1.00;;;;;;4993063;28;20000;-66
2021/08/18 08:49:15;;;;;;;;;;;19.50;1.00;;;;;;4992855;28;20418;-66
2021/08/18 08:51:41;;;;;;;;;;;19.40;1.00;;;;;;4993293;28;19910;-66
2021/08/18 08:54:07;;;;;;;;;;;19.10;1.00;;;;;;4990154;28;19965;-66
2021/08/18 08:56:32;;;;;;;;;;;18.90;1.00;;;;;;4992066;28;20401;-65
2021/08/18 08:58:58;;;;;;;;;;;18.80;1.00;;;;;;4992779;28;19910;-66
2021/08/18 09:01:23;;;;;;;;;;;18.80;1.00;;;;;;4992454;28;20318;-66
2021/08/18 09:03:49;;;;;;;;;;;18.80;1.00;;;;;;4990578;28;19949;-66
2021/08/18 09:06:20;;;;;;;;;;;19.00;1.00;;;;;;4992604;28;20285;-66
2021/08/18 09:08:47;;;;;;;;;;;19.30;1.00;;;;;;4992159;28;19914;-66
2021/08/18 09:11:14;;;;;;;;;;;19.70;1.00;;;;;;4992864;28;19965;-67
2021/08/18 09:13:40;;;;;;;;;;;20.20;1.00;;;;;;4991893;28;20363;-67
2021/08/18 09:16:05;;;;;;;;;;;21.00;1.00;;;;;;4993105;28;19937;-67
2021/08/18 09:18:34;;;;;;;;;;;21.50;99.90;;;;;;4992160;28;19918;-67
2021/08/18 09:21:00;;;;;;;;;;;22.10;99.90;;;;;;4992894;28;19917;-66
2021/08/18 09:23:25;;;;;;;;;;;22.80;99.90;;;;;;4991323;28;20286;-67
2021/08/18 09:25:51;;;;;;;;;;;23.20;99.90;;;;;;4992209;28;19914;-66
2021/08/18 09:28:17;;;;;;;;;;;23.00;99.90;;;;;;5007363;28;19932;-65
2021/08/18 09:30:44;;;;;;;;;;;22.70;99.90;;;;;;5011932;28;19913;-67
2021/08/18 09:33:14;;;;;;;;;;;22.90;99.90;;;;;;5010502;28;20016;-66
2021/08/18 09:35:40;;;;;;;;;;;22.80;99.90;;;;;;5011700;28;20390;-67
2021/08/18 09:38:07;;;;;;;;;;;22.90;99.90;;;;;;5010802;28;19909;-66
2021/08/18 09:40:37;;;;;;;;;;;22.90;99.90;;;;;;5009992;28;19916;-65
2021/08/18 09:43:08;;;;;;;;;;;23.00;99.90;;;;;;5011417;28;20434;-66
2021/08/18 09:45:34;;;;;;;;;;;22.80;99.90;;;;;;5010814;28;20020;-66
2021/08/18 09:47:59;;;;;;;;;;;22.50;99.90;;;;;;5011869;28;19948;-67
2021/08/18 09:50:26;;;;;;;;;;;22.00;99.90;;;;;;5011126;28;19910;-67
2021/08/18 09:52:52;;;;;;;;;;;21.40;99.90;;;;;;5010158;28;19988;-66
2021/08/18 09:55:22;;;;;;;;;;;21.10;99.90;;;;;;5010700;28;19924;-66
2021/08/18 09:57:48;;;;;;;;;;;21.10;99.90;;;;;;5011786;28;19985;-67
2021/08/18 10:00:13;;;;;;;;;;;21.20;99.90;;;;;;5011444;28;20439;-66
2021/08/18 10:02:39;;;;;;;;;;;21.20;99.90;;;;;;5009951;28;19936;-67
2021/08/18 10:05:05;;;;;;;;;;;21.40;99.90;;;;;;5011291;28;19913;-66
2021/08/18 10:07:30;;;;;;;;;;;21.50;99.90;;;;;;5011398;28;19914;-66
2021/08/18 10:09:56;;;;;;;;;;;21.40;99.90;;;;;;5010693;28;20405;-67
2021/08/18 10:12:22;;;;;;;;;;;21.40;99.90;;;;;;5010516;28;19909;-66
2021/08/18 10:14:48;;;;;;;;;;;21.30;99.90;;;;;;5010504;28;19920;-67
2021/08/18 10:17:14;;;;;;;;;;;21.30;99.90;;;;;;5011086;28;19958;-67
2021/08/18 10:19:40;;;;;;;;;;;21.20;99.90;;;;;;5010884;28;19910;-67
2021/08/18 10:22:06;;;;;;;;;;;21.30;99.90;;;;;;5010387;28;19917;-66
2021/08/18 10:24:34;;;;;;;;;;;21.20;99.90;;;;;;5009983;28;19917;-64
2021/08/18 10:27:00;;;;;;;;;;;21.20;99.90;;;;;;5010865;28;19917;-66
2021/08/18 10:29:33;;;;;;;;;;;21.20;99.90;;;;;;5011046;28;20278;-66
2021/08/18 10:32:08;;;;;;;;;;;21.30;99.90;;;;;;5010279;28;19955;-66
2021/08/18 10:34:47;;;;;;;;;;;21.30;99.90;;;;;;5010657;28;19925;-66
2021/08/18 10:37:13;;;;;;;;;;;21.30;99.90;;;;;;5010987;28;19967;-66
2021/08/18 10:39:43;;;;;;;;;;;21.20;99.90;;;;;;5009871;28;20390;-66
2021/08/18 10:42:16;;;;;;;;;;;21.00;99.90;;;;;;5010122;28;19971;-66
2021/08/18 10:44:48;;;;;;;;;;;20.90;99.90;;;;;;5010190;28;20398;-66
2021/08/18 10:47:29;;;;;;;;;;;20.80;99.90;;;;;;5010884;28;20265;-65
2021/08/18 10:49:58;;;;;;;;;;;20.70;99.90;;;;;;5011013;28;19949;-65
2021/08/18 10:52:30;;;;;;;;;;;20.70;99.90;;;;;;5008531;28;19925;-65
2021/08/18 10:55:01;;;;;;;;;;;20.90;99.90;;;;;;5005670;28;19991;-66
2021/08/18 10:57:35;;;;;;;;;;;21.10;99.90;;;;;;4991024;28;20262;-66
2021/08/18 11:00:18;;;;;;;;;;;21.40;99.90;;;;;;4991040;28;20009;-65
2021/08/18 11:02:48;;;;;;;;;;;21.50;99.90;;;;;;4989059;28;20016;-66
2021/08/18 11:05:14;;;;;;;;;;;21.50;99.90;;;;;;4990538;28;20317;-66
2021/08/18 11:08:18;;;;;;;;;;;21.60;99.90;;;;;;4990325;28;19925;-66
2021/08/18 11:10:55;;;;;;;;;;;21.60;99.90;;;;;;4968426;28;20378;-66
2021/08/18 11:13:37;;;;;;;;;;;21.60;99.90;;;;;;4967161;28;20229;-66
2021/08/18 11:16:09;;;;;;;;;;;21.50;99.90;;;;;;4982790;28;20013;-66
2021/08/18 11:18:35;;;;;;;;;;;21.20;99.90;;;;;;4990402;28;19917;-66
2021/08/18 11:21:01;;;;;;;;;;;21.10;99.90;;;;;;4990591;28;19917;-66
2021/08/18 11:23:28;;;;;;;;;;;21.00;99.90;;;;;;4989618;28;20212;-66
2021/08/18 11:25:57;;;;;;;;;;;21.10;99.90;;;;;;4989946;28;19914;-66
2021/08/18 11:28:23;;;;;;;;;;;21.10;99.90;;;;;;4990265;28;19917;-65
2021/08/18 11:31:02;;;;;;;;;;;21.20;99.90;;;;;;4991016;28;19914;-66
2021/08/18 11:33:28;;;;;;;;;;;21.20;99.90;;;;;;4989615;28;20024;-66
2021/08/18 11:35:54;;;;;;;;;;;21.00;99.90;;;;;;4990985;28;20367;-66
2021/08/18 11:38:20;;;;;;;;;;;20.90;99.90;;;;;;4990331;28;19916;-66
2021/08/18 11:40:49;;;;;;;;;;;20.80;99.90;;;;;;4990510;28;19932;-66
2021/08/18 11:43:15;;;;;;;;;;;20.70;99.90;;;;;;4988863;28;19965;-66
2021/08/18 11:45:41;;;;;;;;;;;20.70;99.90;;;;;;4990322;28;19914;-65
2021/08/18 11:48:07;;;;;;;;;;;20.70;99.90;;;;;;4990365;28;19913;-66
2021/08/18 11:50:33;;;;;;;;;;;20.80;99.90;;;;;;4990296;28;19914;-66
2021/08/18 11:52:59;;;;;;;;;;;20.80;99.90;;;;;;4989323;28;20335;-65
2021/08/18 11:55:26;;;;;;;;;;;21.00;99.90;;;;;;4989259;28;19918;-66
2021/08/18 11:57:56;;;;;;;;;;;21.20;99.90;;;;;;4990043;28;19914;-66
2021/08/18 12:00:22;;;;;;;;;;;21.50;99.90;;;;;;4990336;28;19910;-66
2021/08/18 12:02:47;;;;;;;;;;;21.80;99.90;;;;;;4990368;28;19917;-66
2021/08/18 12:05:13;;;;;;;;;;;22.10;99.90;;;;;;4994186;28;19926;-65
2021/08/18 12:07:38;;;;;;;;;;;22.60;99.90;;;;;;4993435;28;20010;-66
2021/08/18 12:10:30;;;;;;;;;;;22.90;99.90;;;;;;4993580;28;20311;-66
2021/08/18 12:13:06;;;;;;;;;;;23.10;99.90;;;;;;4991677;28;20387;-66
2021/08/18 12:15:33;;;;;;;;;;;23.20;99.90;;;;;;4993511;28;19910;-66
2021/08/18 12:17:59;;;;;;;;;;;23.50;99.90;;;;;;4993991;28;19909;-66
2021/08/18 12:20:33;;;;;;;;;;;23.60;99.90;;;;;;4997091;28;20392;-66
2021/08/18 12:23:03;;;;;;;;;;;23.60;99.90;;;;;;5000970;28;19917;-66
2021/08/18 12:25:35;;;;;;;;;;;23.50;99.90;;;;;;4993538;28;19918;-66
2021/08/18 12:28:14;;;;;;;;;;;23.60;99.90;;;;;;4992254;28;19910;-66
2021/08/18 12:30:59;;;;;;;;;;;23.80;99.90;;;;;;4994157;28;19921;-66
2021/08/18 12:33:25;;;;;;;;;;;23.90;99.90;;;;;;4998311;28;19922;-66
2021/08/18 12:36:09;;;;;;;;;;;23.90;99.90;;;;;;4999259;28;20437;-66
2021/08/18 12:38:35;;;;;;;;;;;24.10;99.90;;;;;;4997544;28;19911;-66
2021/08/18 12:41:07;;;;;;;;;;;24.20;99.90;;;;;;4997457;28;19917;-66
2021/08/18 12:43:33;;;;;;;;;;;24.50;99.90;;;;;;4995668;28;19918;-65
2021/08/18 12:45:59;;;;;;;;;;;24.70;99.90;;;;;;5001151;28;19914;-66
2021/08/18 12:48:25;;;;;;;;;;;25.10;99.90;;;;;;5015697;28;19910;-66
2021/08/18 12:50:50;;;;;;;;;;;25.30;99.90;;;;;;5015040;28;19913;-67
2021/08/18 12:53:16;;;;;;;;;;;25.20;99.90;;;;;;5011821;28;20369;-66
2021/08/18 12:55:43;;;;;;;;;;;25.40;99.90;;;;;;5012195;28;19914;-66
2021/08/18 12:58:21;;;;;;;;;;;25.50;99.90;;;;;;5013453;28;20523;-66
2021/08/18 13:00:47;;;;;;;;;;;25.50;99.90;;;;;;5013644;28;19909;-66
2021/08/18 13:03:12;;;;;;;;;;;25.60;99.90;;;;;;5012210;28;19913;-66
2021/08/18 13:05:38;;;;;;;;;;;25.60;99.90;;;;;;5013235;28;19949;-66
2021/08/18 13:08:04;;;;;;;;;;;25.60;99.90;;;;;;5011849;28;19916;-66
2021/08/18 13:10:29;;;;;;;;;;;25.60;99.90;;;;;;5012472;28;19916;-66
2021/08/18 13:12:55;;;;;;;;;;;25.80;99.90;;;;;;5011542;28;19949;-66
2021/08/18 13:15:21;;;;;;;;;;;26.10;99.90;;;;;;5013468;28;20449;-66
2021/08/18 13:17:46;;;;;;;;;;;26.20;99.90;;;;;;5012821;28;20355;-68
2021/08/18 13:20:12;;;;;;;;;;;26.10;99.90;;;;;;5012377;28;19940;-67
2021/08/18 13:22:37;;;;;;;;;;;25.90;99.90;;;;;;5011294;28;19910;-67
2021/08/18 13:25:03;;;;;;;;;;;25.50;99.90;;;;;;5011755;28;20302;-67
2021/08/18 13:27:30;;;;;;;;;;;25.30;99.90;;;;;;5012711;28;19964;-66
2021/08/18 13:29:55;;;;;;;;;;;25.20;99.90;;;;;;5011953;28;20019;-67
2021/08/18 13:32:21;;;;;;;;;;;24.90;99.90;;;;;;5011179;28;19957;-67
2021/08/18 13:34:47;;;;;;;;;;;24.90;99.90;;;;;;5011898;28;19925;-67
2021/08/18 13:37:12;;;;;;;;;;;25.00;99.90;;;;;;5012338;28;19914;-67
2021/08/18 13:39:37;;;;;;;;;;;25.00;99.90;;;;;;5011041;28;20059;-67
2021/08/18 13:42:03;;;;;;;;;;;25.00;99.90;;;;;;5011412;28;19914;-66
2021/08/18 13:44:29;;;;;;;;;;;25.00;99.90;;;;;;5013045;28;19970;-67
2021/08/18 13:46:54;;;;;;;;;;;25.10;99.90;;;;;;5013883;28;19914;-67
2021/08/18 13:49:20;;;;;;;;;;;25.30;99.90;;;;;;5013810;28;19909;-67
2021/08/18 13:51:45;;;;;;;;;;;25.40;99.90;;;;;;5013791;28;19909;-67
2021/08/18 13:54:11;;;;;;;;;;;25.40;99.90;;;;;;5011531;28;19968;-67
2021/08/18 13:56:39;;;;;;;;;;;25.20;99.90;;;;;;5013354;28;19921;-67
2021/08/18 13:59:06;;;;;;;;;;;25.10;99.90;;;;;;5013344;28;20381;-67
2021/08/18 14:01:32;;;;;;;;;;;24.90;99.90;;;;;;5012689;28;19910;-67
2021/08/18 14:03:59;;;;;;;;;;;24.80;99.90;;;;;;5009792;28;19919;-67
2021/08/18 14:06:25;;;;;;;;;;;24.80;99.90;;;;;;5012465;28;20267;-67
2021/08/18 14:08:52;;;;;;;;;;;24.80;99.90;;;;;;5011894;28;19913;-67
2021/08/18 14:11:18;;;;;;;;;;;24.70;99.90;;;;;;5010353;28;19910;-67
2021/08/18 14:13:43;;;;;;;;;;;24.80;99.90;;;;;;5010645;28;20365;-67
2021/08/18 14:16:09;;;;;;;;;;;24.80;99.90;;;;;;5011886;28;19988;-67
2021/08/18 14:18:36;;;;;;;;;;;24.90;99.90;;;;;;5010982;28;19945;-67
2021/08/18 14:21:01;;;;;;;;;;;25.20;99.90;;;;;;5011992;28;19910;-67
2021/08/18 14:23:28;;;;;;;;;;;25.20;99.90;;;;;;5010694;28;20266;-67
2021/08/18 14:25:54;;;;;;;;;;;25.20;99.90;;;;;;5010750;28;19909;-67
2021/08/18 14:28:19;;;;;;;;;;;25.40;99.90;;;;;;5011917;28;20000;-67
2021/08/18 14:30:45;;;;;;;;;;;25.50;99.90;;;;;;5011175;28;20327;-67
2021/08/18 14:33:10;;;;;;;;;;;25.60;99.90;;;;;;5010656;28;20015;-66
2021/08/18 14:35:36;;;;;;;;;;;25.40;99.90;;;;;;5011305;28;19913;-67
2021/08/18 14:38:03;;;;;;;;;;;25.30;99.90;;;;;;5009739;28;20409;-67
2021/08/18 14:40:29;;;;;;;;;;;25.00;99.90;;;;;;5010140;28;20315;-67
2021/08/18 14:42:54;;;;;;;;;;;24.90;99.90;;;;;;5010198;28;19909;-66
2021/08/18 14:45:20;;;;;;;;;;;24.80;99.90;;;;;;5010877;28;19913;-66
2021/08/18 14:47:46;;;;;;;;;;;24.50;99.90;;;;;;5011957;28;19956;-71